Terminal Aerodrome Forecast
Issued by NWS Charleston, SC

Current Version | Previous Version | Text Only | Print | Product List | Glossary Off
Versions: 1 2 3 4 5 6 7 8 9 10 11 12 13 14 15

000
FTUS42 KCHS 221340 AAA
TAFCHS
TAF AMD
KCHS 221340Z 2214/2312 VRB04KT P6SM SCT040 BKN200
     FM221600 15005KT P6SM SCT020 BKN040
     FM222100 17006KT P6SM BKN040
     FM230600 18007KT P6SM SCT008 BKN020
     FM230900 20008KT 5SM -RA BR SCT010 BKN020=

USA.gov is the U.S. government's official web portal to all federal, state and local government web resources and services.